Norwegian Crown — C6II4 — position and weather

sailwx.info

Track history (hours):
 
Tides and Currents Weather Stations Pressure Air Temp Water Temp Dewpoint Dewpoint Depression Visibility Wind Speed Wind Dir Waves Ship Positions

Norwegian Crown

Operator: Norwegian Cruise Line

Last reported at 2016-Dec-03 22:28 UTC. Time now 2016-Dec-08 05:59 UTC.
Position N 18°00' W 063°02'.

Type: Ship. MMSI: 308785000.

Date/timePositionNaut miles runAvg speedWind from/ knotsBaromVisibWave heightAir tempDewpointWater temp
2016-Dec-03 22:28N 18°00' W 063°02'1 0.1
2016-Dec-03 11:18N 18°01' W 063°03'3 4.1
2016-Dec-03 10:33N 17°58' W 063°05'8 7.7
2016-Dec-03 09:33N 17°52' W 062°59'13 0.4
2016-Dec-02 04:33N 17°40' W 063°04'10915.7
2016-Dec-01 21:33N 18°09' W 064°55'  
2016-Nov-29 10:04N 18°17' W 064°55'4 7.9
2016-Nov-29 09:33N 18°13' W 064°55'27 6.2
2016-Nov-29 05:14N 18°10' W 064°27'811.1
2016-Nov-29 04:33N 18°18' W 064°27'1010.5
2016-Nov-29 03:33N 18°24' W 064°35'2 0.1
2016-Nov-28 11:16N 18°25' W 064°36'5 7.5
2016-Nov-28 10:33N 18°24' W 064°31'5310.4
2016-Nov-28 05:26N 17°59' W 063°41'1111.0
2016-Nov-28 04:26N 17°54' W 063°31'1110.5
2016-Nov-28 03:25N 17°49' W 063°21'910.6
2016-Nov-28 02:32N 17°45' W 063°12'39 2.6
2016-Nov-27 11:32N 17°17' W 062°43'2411.1
2016-Nov-27 09:25N 16°54' W 062°37'1416.7
2016-Nov-27 08:33N 16°41' W 062°31'1716.9
2016-Nov-27 07:33N 16°26' W 062°23'  
Track history (hours):
 
Tides and Currents Weather Stations Pressure Air Temp Water Temp Dewpoint Dewpoint Depression Visibility Wind Speed Wind Dir Waves Ship Positions

Norwegian Crown

Operator: Norwegian Cruise Line

Last reported at 2016-Dec-03 22:28 UTC. Time now 2016-Dec-08 05:59 UTC.
Position N 18°00' W 063°02'.

Type: Ship. MMSI: 308785000.

Date/timePositionNaut miles runAvg speedWind from/ knotsBaromVisibWave heightAir tempDewpointWater temp
2016-Dec-03 22:28N 18°00' W 063°02'1 0.1
2016-Dec-03 11:18N 18°01' W 063°03'3 4.1
2016-Dec-03 10:33N 17°58' W 063°05'8 7.7
2016-Dec-03 09:33N 17°52' W 062°59'13 0.4
2016-Dec-02 04:33N 17°40' W 063°04'10915.7
2016-Dec-01 21:33N 18°09' W 064°55'  
2016-Nov-29 10:04N 18°17' W 064°55'4 7.9
2016-Nov-29 09:33N 18°13' W 064°55'27 6.2
2016-Nov-29 05:14N 18°10' W 064°27'811.1
2016-Nov-29 04:33N 18°18' W 064°27'1010.5
2016-Nov-29 03:33N 18°24' W 064°35'2 0.1
2016-Nov-28 11:16N 18°25' W 064°36'5 7.5
2016-Nov-28 10:33N 18°24' W 064°31'5310.4
2016-Nov-28 05:26N 17°59' W 063°41'1111.0
2016-Nov-28 04:26N 17°54' W 063°31'1110.5
2016-Nov-28 03:25N 17°49' W 063°21'910.6
2016-Nov-28 02:32N 17°45' W 063°12'39 2.6
2016-Nov-27 11:32N 17°17' W 062°43'2411.1
2016-Nov-27 09:25N 16°54' W 062°37'1416.7
2016-Nov-27 08:33N 16°41' W 062°31'1716.9
2016-Nov-27 07:33N 16°26' W 062°23'  

Dump ship's entire track history